Baudette, MN

06:19 CST le 29 janvier 2015 (GMT -0600)
Baudette International | Change Station
CLOSE
Current Station
Aéroport
Location: Baudette,
Altitude: 1083 ft
Stations météo à proximité
Avis météorologiques actifs: Special Statement Préavis actif: Record Report

Alt. 1083 ft 48.73 °N, 94.61 °W | Updated 26 minutes ago

Couvert
Couvert
13 ° F
Paraît -6 ° F
N
24
Vent Variable Vent de NNO
Gusts 32 mph

Aujourd'hui
Haut(e) -- | Bas -- ° F
--% Risque de précip.
Hier
Haut(e) -- | Bas -- ° F
Precip. -- pouce
7:52 AM 5:12 PM
Lune gibbeuse croissante, 74% visible
Pression 30.20 pouce
Visibilité 10.0 Miles terrestres
Nuages Nuages épars 1400 ft
Couvert 2000 ft
Refroidissement éolien -6 ° F
Point de rosée 9 ° F
Humidité 84%
Précipitations 0.00 pouce
Profondeur de la couche neigeuse Non disponible.
UV 0 sur 12
Pollen .10 sur 12
Qualité de l'air Non disponible.
Flu Activity Non disponible.
METAR KBDE 291153Z AUTO 33021G28KT 10SM SCT014 OVC020 M11/M13 A3014 RMK AO2 PK WND 32030/1106 SLP227 T11061128 11017 21106 51033 TSNO $

More Conditions Fewer Conditions

Pression 30.20 pouce
Visibilité 10.0 Miles terrestres
Nuages Nuages épars 1400 ft
Couvert 2000 ft
Refroidissement éolien -6 ° F
Point de rosée 9 ° F
Humidité 84%
Précipitations 0.00 pouce
Profondeur de la couche neigeuse Non disponible.
UV 0 sur 12
Pollen .10 sur 12
Qualité de l'air Non disponible.
Flu Activity Non disponible.
METAR KBDE 291153Z AUTO 33021G28KT 10SM SCT014 OVC020 M11/M13 A3014 RMK AO2 PK WND 32030/1106 SLP227 T11061128 11017 21106 51033 TSNO $

More Conditions Fewer Conditions

10-Day Weather Forecast

Almanac

Astronomie

Jan. 29, 2015 Lever Coucher
Temps réel
Crépuscule civil
Crépuscule nautique
Crépuscule astronomique
Lune
Durée de lumière visible
Longueur du jour
Tomorrow will be .
, % of the Moon is Illuminated

Extrêmes aujourd'hui

State Highs State Lows

Community

WunderPhotos

Upload Photos

1,791,418 Photos téléchargées !

WunderBlogs® & News

Nearby

Qualité de l'air

  Qualité de l'air Indice de la qualité de l'air Polluant
Not available.

Épaisseur de neige

Station Depth Altitude

Activité sismique

Ville Distance Mag. Time & Date
Minimum magnitude displayed is 2.5.

Températures des eaux côtières

Lieu Température

Stations météo à proximité